Ana Sayfa
METAR-TAF:

METAR-TAF

Havaalanları :

Ercan Uluslararası Havalimanı

Lefkoşa, Kıbrıs

Enlem: 35-09N, Boylam: 033-30E, yükseklik: 91 m

Güncel hava durumu gözlemi

Rapor saat 17:50 UTC de 26 dakika önce yapıldı.
Rüzgar batı/kuzeybatıdan 9 kt
Sıcaklık 23°C
Nem 69%
Basınç 1015 hPa
Görüş mesafesi 10 km veya daha fazla
2500 ft yükseklikte parçalı bulutlu

METAR: LCEN 161750Z 29009KT 9999 SCT025 23/17 Q1015 NOSIG RMK RWY11 30007KT

Saat: 21:16 (18:16 UTC)

Tahmin

Rapor saat 16:40 UTC de 1 saat ve 36 dakika önce yapıldı.
Ayın 16'si saat 18 UTC'den ayın 17'si saat 18 UTC'ye kadar geçerli Tahmin
Rüzgar batı/kuzeybatıdan 12 kt
Görüş mesafesi 10 km veya daha fazla
2500 ft yükseklikte parçalı bulutlu

TAF: LCEN 161640Z 1618/1718 29012KT 9999 SCT025

4.000'den fazla havaalanı için hava durumu gözlemleri ve tahminleri (METAR ve TAF raporları).

Kullanılabilir istasyonlar harita üzerinde sarı ve kırmızı noktalarla gösterilir.

İstasyonun adını görmek için fareyi noktanın üzerinde gezdirin.

Sonrasında hava gözlem ve tahminlerini görmek için tıklayın.

Haritayı değiştirmek için: yaklaştırmak için siyah artı işaretli yeşil düğmeye ve uzaklaştırmak için de eksi işaretli düğmeye hızla tıklayın; bitişik haritalar için yeşil okları kullanın.


METAR-TAF: